createdAt,value
2017-10-03T00:00:07.185Z,86.80
2017-10-03T00:02:34.785Z,86.50
2017-10-03T00:05:03.171Z,87.50
2017-10-03T00:07:30.775Z,86.50
2017-10-03T00:09:58.409Z,86.50
2017-10-03T00:12:26.044Z,86.50
2017-10-03T00:14:53.695Z,86.30
2017-10-03T00:17:21.358Z,86.70
2017-10-03T00:19:49.025Z,86.60
2017-10-03T00:22:18.332Z,86.70
2017-10-03T00:24:46.793Z,86.80
2017-10-03T00:27:14.553Z,86.80
2017-10-03T00:29:42.287Z,87.10
2017-10-03T00:32:10.009Z,86.80
2017-10-03T00:34:37.640Z,87.20
2017-10-03T00:37:05.289Z,86.90
2017-10-03T00:39:32.906Z,87.10
2017-10-03T00:42:00.556Z,86.80
2017-10-03T00:44:28.174Z,87.10
2017-10-03T00:46:56.588Z,86.70
2017-10-03T00:49:25.591Z,86.80
2017-10-03T00:51:53.293Z,86.90
2017-10-03T00:54:20.936Z,86.70
2017-10-03T00:56:48.610Z,86.50
2017-10-03T00:59:16.437Z,86.40
2017-10-03T01:01:44.099Z,86.40
2017-10-03T01:04:11.769Z,86.30
2017-10-03T01:06:39.409Z,86.00
2017-10-03T01:09:07.055Z,85.80
2017-10-03T01:11:40.598Z,85.70
2017-10-03T01:14:08.270Z,85.60
2017-10-03T01:16:35.877Z,85.40
2017-10-03T01:19:04.329Z,85.10
2017-10-03T01:21:31.952Z,85.00
2017-10-03T01:23:59.597Z,85.10
2017-10-03T01:26:27.196Z,85.20
2017-10-03T01:28:55.588Z,85.20
2017-10-03T01:31:23.253Z,85.20
2017-10-03T01:33:50.980Z,85.20
2017-10-03T01:36:18.650Z,84.90
2017-10-03T01:38:46.451Z,84.70
2017-10-03T01:41:15.482Z,84.30
2017-10-03T01:43:44.791Z,84.40
2017-10-03T01:46:13.287Z,84.20
2017-10-03T01:48:40.930Z,84.20
2017-10-03T01:51:09.289Z,84.10
2017-10-03T01:53:37.707Z,83.90
2017-10-03T01:56:05.365Z,83.90
2017-10-03T01:58:33.030Z,83.70
2017-10-03T02:01:00.683Z,83.80
2017-10-03T02:03:28.299Z,83.80
2017-10-03T02:05:55.942Z,84.30
2017-10-03T02:08:23.606Z,83.80
2017-10-03T02:10:51.266Z,83.80
2017-10-03T02:13:18.904Z,84.00
2017-10-03T02:15:46.580Z,83.60
2017-10-03T02:18:15.099Z,83.50
2017-10-03T02:20:43.980Z,83.60
2017-10-03T02:23:11.622Z,83.90
2017-10-03T02:28:12.826Z,83.80
2017-10-03T02:30:40.501Z,83.70
2017-10-03T02:33:08.085Z,83.90
2017-10-03T02:35:35.745Z,83.90
2017-10-03T02:38:03.375Z,83.80
2017-10-03T02:40:30.960Z,84.00
2017-10-03T02:42:58.584Z,84.10
2017-10-03T02:45:27.006Z,84.10
2017-10-03T02:47:54.656Z,84.10
2017-10-03T02:50:22.253Z,84.50
2017-10-03T02:52:49.977Z,84.40
2017-10-03T02:55:18.376Z,84.40
2017-10-03T02:57:46.079Z,84.30
2017-10-03T03:00:13.797Z,84.10
2017-10-03T03:02:41.467Z,84.20
2017-10-03T03:05:11.979Z,84.10
2017-10-03T03:07:39.653Z,84.00
2017-10-03T03:10:08.076Z,85.00
2017-10-03T03:12:36.203Z,84.20
2017-10-03T03:15:04.900Z,84.30
2017-10-03T03:17:32.523Z,84.40
2017-10-03T03:20:00.233Z,84.50
2017-10-03T03:22:27.835Z,84.60
2017-10-03T03:24:56.282Z,85.00
2017-10-03T03:27:23.897Z,85.00
2017-10-03T03:29:51.523Z,84.90
2017-10-03T03:32:19.199Z,84.80
2017-10-03T03:34:47.588Z,85.30
2017-10-03T03:37:15.359Z,85.30
2017-10-03T03:39:43.059Z,85.50
2017-10-03T03:42:11.422Z,86.00
2017-10-03T03:44:39.193Z,86.00
2017-10-03T03:47:07.586Z,86.00
2017-10-03T03:49:36.626Z,86.00
2017-10-03T03:52:05.130Z,85.80
2017-10-03T03:54:33.674Z,86.70
2017-10-03T03:57:02.772Z,87.30
2017-10-03T03:59:30.512Z,88.10
2017-10-03T04:01:59.078Z,88.30
2017-10-03T04:04:26.723Z,88.90
2017-10-03T04:06:54.367Z,88.90
2017-10-03T04:09:22.005Z,88.70
2017-10-03T04:11:50.428Z,88.80
2017-10-03T04:14:18.023Z,88.80
2017-10-03T04:16:45.807Z,89.20
2017-10-03T04:19:13.561Z,89.00
2017-10-03T04:21:41.991Z,88.90
2017-10-03T04:24:10.397Z,88.80
2017-10-03T04:26:38.790Z,88.80
2017-10-03T04:29:06.430Z,88.70
2017-10-03T04:31:34.027Z,88.40
2017-10-03T04:34:01.709Z,88.60
2017-10-03T04:36:29.295Z,88.60
2017-10-03T04:38:57.773Z,90.10
2017-10-03T04:41:25.404Z,90.10
2017-10-03T04:43:53.049Z,91.30
2017-10-03T04:46:21.646Z,88.10
2017-10-03T04:48:49.351Z,88.10
2017-10-03T04:51:17.058Z,90.20
2017-10-03T04:53:44.767Z,91.80
2017-10-03T04:56:12.438Z,92.70
2017-10-03T04:58:40.054Z,93.60
2017-10-03T05:01:07.716Z,94.20
2017-10-03T05:03:36.139Z,94.70
2017-10-03T05:06:03.782Z,94.70
2017-10-03T05:08:31.368Z,95.00
2017-10-03T05:10:59.805Z,95.90
2017-10-03T05:13:27.444Z,95.90
2017-10-03T05:15:55.091Z,96.10
2017-10-03T05:18:22.883Z,95.90
2017-10-03T05:20:51.296Z,95.60
2017-10-03T05:23:18.932Z,95.50
2017-10-03T05:25:46.660Z,95.80
2017-10-03T05:28:14.336Z,95.70
2017-10-03T05:30:42.011Z,96.10
2017-10-03T05:33:09.669Z,95.30
2017-10-03T05:35:37.329Z,96.20
2017-10-03T05:38:05.710Z,95.60
2017-10-03T05:40:33.412Z,95.60
2017-10-03T05:43:01.107Z,95.90
2017-10-03T05:45:28.800Z,96.20
2017-10-03T05:47:57.229Z,96.30
2017-10-03T05:50:24.875Z,96.20
2017-10-03T05:52:52.550Z,95.80
2017-10-03T05:55:20.222Z,96.10
2017-10-03T05:57:48.012Z,96.50
2017-10-03T06:00:21.526Z,96.50
2017-10-03T06:02:49.163Z,96.30
2017-10-03T06:05:16.805Z,96.20
2017-10-03T06:07:44.602Z,96.60
2017-10-03T06:10:12.662Z,96.90
2017-10-03T06:12:40.335Z,97.10
2017-10-03T06:15:07.978Z,97.20
2017-10-03T06:17:36.418Z,96.70
2017-10-03T06:20:04.100Z,96.70
2017-10-03T06:22:32.496Z,97.00
2017-10-03T06:25:00.061Z,97.00
2017-10-03T06:27:27.718Z,96.80
2017-10-03T06:29:55.302Z,96.40
2017-10-03T06:32:23.713Z,95.40
2017-10-03T06:34:51.343Z,95.40
2017-10-03T06:37:19.071Z,95.70
2017-10-03T06:39:46.740Z,95.90
2017-10-03T06:42:14.488Z,95.70
2017-10-03T06:44:42.079Z,96.00
2017-10-03T06:47:09.715Z,96.30
2017-10-03T06:49:37.477Z,96.40
2017-10-03T06:52:05.120Z,96.70
2017-10-03T06:54:32.731Z,96.70
2017-10-03T06:57:00.377Z,96.70
2017-10-03T06:59:27.986Z,96.40
2017-10-03T07:01:56.382Z,96.90
2017-10-03T07:04:23.969Z,96.90
2017-10-03T07:06:51.623Z,97.00
2017-10-03T07:09:19.230Z,97.00
2017-10-03T07:11:46.912Z,96.80
2017-10-03T07:14:14.533Z,96.80
2017-10-03T07:16:42.150Z,96.40
2017-10-03T07:19:09.841Z,96.70
2017-10-03T07:21:37.472Z,96.80
2017-10-03T07:24:05.213Z,96.70
2017-10-03T07:26:32.861Z,96.90
2017-10-03T07:29:00.566Z,96.40
2017-10-03T07:31:28.934Z,97.20
2017-10-03T07:33:57.353Z,97.00
2017-10-03T07:36:25.013Z,97.00
2017-10-03T07:38:52.620Z,97.30
2017-10-03T07:41:20.323Z,97.00
2017-10-03T07:43:47.955Z,96.80
2017-10-03T07:46:15.633Z,97.20
2017-10-03T07:48:44.789Z,96.80
2017-10-03T07:51:13.265Z,96.30
2017-10-03T07:53:41.654Z,96.40
2017-10-03T07:56:10.105Z,95.60
2017-10-03T07:58:37.729Z,95.60
2017-10-03T08:01:05.365Z,95.30
2017-10-03T08:03:33.778Z,96.60
2017-10-03T08:06:01.377Z,96.50
2017-10-03T08:08:29.081Z,95.80
2017-10-03T08:10:56.842Z,96.10
2017-10-03T08:13:24.581Z,96.40
2017-10-03T08:15:52.231Z,96.00
2017-10-03T08:18:19.928Z,96.00
2017-10-03T08:20:48.566Z,94.60
2017-10-03T08:23:17.118Z,95.30
2017-10-03T08:25:47.112Z,94.50
2017-10-03T08:28:15.246Z,95.00
2017-10-03T08:30:43.784Z,94.20
2017-10-03T08:33:11.486Z,94.20
2017-10-03T08:35:39.860Z,93.50
2017-10-03T08:38:07.542Z,93.50
2017-10-03T08:40:36.007Z,91.80
2017-10-03T08:43:03.645Z,91.70
2017-10-03T08:45:31.290Z,92.30
2017-10-03T08:47:58.910Z,92.50
2017-10-03T08:50:27.328Z,92.50
2017-10-03T08:52:54.977Z,92.50
2017-10-03T08:55:22.847Z,92.10
2017-10-03T08:57:50.534Z,90.40
2017-10-03T09:00:19.001Z,91.50
2017-10-03T09:02:47.060Z,91.80
2017-10-03T09:05:14.785Z,91.50
2017-10-03T09:07:42.482Z,92.30
2017-10-03T09:10:10.142Z,93.30
2017-10-03T09:12:37.827Z,92.40
2017-10-03T09:15:06.294Z,91.80
2017-10-03T09:17:34.658Z,91.40
2017-10-03T09:20:03.007Z,91.50
2017-10-03T09:22:30.749Z,91.50
2017-10-03T09:24:58.405Z,92.70
2017-10-03T09:27:25.959Z,93.00
2017-10-03T09:29:54.427Z,93.10
2017-10-03T09:32:22.722Z,93.10
2017-10-03T09:34:50.322Z,93.00
2017-10-03T09:37:18.662Z,91.70
2017-10-03T09:39:46.497Z,91.60
2017-10-03T09:42:14.173Z,91.20
2017-10-03T09:44:41.829Z,90.60
2017-10-03T09:47:09.644Z,90.90
2017-10-03T09:49:37.365Z,90.00
2017-10-03T09:52:05.015Z,88.10
2017-10-03T09:54:32.648Z,84.30
2017-10-03T09:57:01.091Z,84.60
2017-10-03T09:59:28.714Z,84.40
2017-10-03T10:01:56.352Z,87.30
2017-10-03T10:04:23.936Z,87.50
2017-10-03T10:06:52.384Z,87.30
2017-10-03T10:09:20.023Z,87.30
2017-10-03T10:11:47.711Z,88.70
2017-10-03T10:14:15.554Z,89.20
2017-10-03T10:16:43.983Z,85.60
2017-10-03T10:19:11.692Z,85.50
2017-10-03T10:21:39.343Z,83.20
2017-10-03T10:24:06.939Z,81.30
2017-10-03T10:26:34.586Z,80.00
2017-10-03T10:29:02.177Z,83.70
2017-10-03T10:31:29.813Z,85.10
2017-10-03T10:33:58.539Z,83.70
2017-10-03T10:36:26.194Z,83.80
2017-10-03T10:38:53.792Z,83.30
2017-10-03T10:41:21.457Z,84.20
2017-10-03T10:43:49.189Z,83.90
2017-10-03T10:46:16.853Z,83.50
2017-10-03T10:48:44.906Z,76.20
2017-10-03T10:51:14.440Z,76.60
2017-10-03T10:53:42.100Z,79.00
2017-10-03T10:56:10.675Z,75.80
2017-10-03T10:58:40.502Z,75.80
2017-10-03T11:01:08.199Z,75.80
2017-10-03T11:03:35.801Z,74.20
2017-10-03T11:06:03.484Z,70.50
2017-10-03T11:08:31.086Z,68.50
2017-10-03T11:10:58.706Z,71.80
2017-10-03T11:13:26.428Z,74.10
2017-10-03T11:15:54.833Z,80.30
2017-10-03T11:18:23.231Z,78.60
2017-10-03T11:20:50.898Z,78.70
2017-10-03T11:26:22.260Z,85.50
2017-10-03T11:28:55.638Z,83.40
2017-10-03T11:31:23.297Z,78.50
2017-10-03T11:33:50.983Z,79.50
2017-10-03T11:36:19.680Z,68.10
2017-10-03T11:38:47.413Z,75.40
2017-10-03T11:41:15.120Z,60.50
2017-10-03T11:43:44.054Z,61.90
2017-10-03T11:46:11.788Z,61.80
2017-10-03T11:48:39.870Z,61.00
2017-10-03T11:51:07.828Z,63.80
2017-10-03T11:53:36.916Z,67.90
2017-10-03T11:56:04.556Z,68.00
2017-10-03T11:58:32.186Z,70.00
2017-10-03T12:01:00.617Z,66.20
2017-10-03T12:03:28.223Z,67.10
2017-10-03T12:05:57.385Z,68.80
2017-10-03T12:08:25.003Z,71.80
2017-10-03T12:10:52.710Z,73.90
2017-10-03T12:13:20.373Z,77.60
2017-10-03T12:15:48.854Z,76.50
2017-10-03T12:18:16.605Z,76.40
2017-10-03T12:20:45.388Z,74.20
2017-10-03T12:23:12.996Z,64.00
2017-10-03T12:25:44.740Z,58.70
2017-10-03T12:28:13.151Z,69.90
2017-10-03T12:30:40.784Z,69.80
2017-10-03T12:33:08.485Z,72.50
2017-10-03T12:35:36.121Z,73.00
2017-10-03T12:38:03.758Z,73.70
2017-10-03T12:40:31.344Z,72.80
2017-10-03T12:42:58.985Z,60.90
2017-10-03T12:45:26.951Z,56.80
2017-10-03T12:47:55.373Z,57.50
2017-10-03T12:50:22.998Z,57.40
2017-10-03T12:52:50.723Z,56.40
2017-10-03T12:55:18.559Z,55.90
2017-10-03T12:57:46.223Z,53.00
2017-10-03T13:00:14.650Z,60.10
2017-10-03T13:02:42.328Z,60.10
2017-10-03T13:05:10.717Z,68.40
2017-10-03T13:07:38.371Z,68.30
2017-10-03T13:10:05.969Z,68.90
2017-10-03T13:12:33.613Z,70.30
2017-10-03T13:15:01.239Z,70.80
2017-10-03T13:17:29.630Z,68.80
2017-10-03T13:19:58.034Z,70.10
2017-10-03T13:22:25.696Z,70.10
2017-10-03T13:24:53.358Z,66.40
2017-10-03T13:27:20.997Z,65.20
2017-10-03T13:29:48.660Z,64.70
2017-10-03T13:32:16.456Z,67.40
2017-10-03T13:34:44.194Z,68.80
2017-10-03T13:37:11.873Z,68.70
2017-10-03T13:39:39.475Z,68.60
2017-10-03T13:42:07.112Z,68.10
2017-10-03T13:44:34.738Z,67.40
2017-10-03T13:47:02.396Z,70.40
2017-10-03T13:49:31.360Z,68.60
2017-10-03T13:54:32.146Z,67.30
2017-10-03T13:56:59.799Z,69.50
2017-10-03T13:59:27.416Z,71.60
2017-10-03T14:01:55.080Z,70.30
2017-10-03T14:04:23.651Z,70.00
2017-10-03T14:06:52.070Z,69.40
2017-10-03T14:09:19.692Z,69.40
2017-10-03T14:11:47.350Z,71.80
2017-10-03T14:14:15.884Z,71.50
2017-10-03T14:16:43.604Z,73.60
2017-10-03T14:19:11.201Z,74.20
2017-10-03T14:21:38.842Z,77.20
2017-10-03T14:24:06.465Z,74.70
2017-10-03T14:26:34.898Z,75.40
2017-10-03T14:29:02.465Z,75.40
2017-10-03T14:31:30.191Z,75.20
2017-10-03T14:33:57.806Z,74.40
2017-10-03T14:36:25.430Z,74.90
2017-10-03T14:38:53.137Z,73.20
2017-10-03T14:41:20.885Z,75.00
2017-10-03T14:43:48.636Z,75.70
2017-10-03T14:46:16.482Z,76.80
2017-10-03T14:48:44.340Z,78.40
2017-10-03T14:51:12.053Z,78.40
2017-10-03T14:53:39.644Z,77.20
2017-10-03T14:56:07.278Z,77.20
2017-10-03T14:58:34.896Z,78.80
2017-10-03T15:01:02.509Z,79.50
2017-10-03T15:03:30.863Z,78.00
2017-10-03T15:05:59.219Z,82.70
2017-10-03T15:08:26.899Z,82.60
2017-10-03T15:10:54.512Z,81.20
2017-10-03T15:13:22.256Z,78.60
2017-10-03T15:15:50.679Z,75.90
2017-10-03T15:18:18.793Z,76.10
2017-10-03T15:20:46.516Z,77.80
2017-10-03T15:23:14.367Z,79.00
2017-10-03T15:25:45.183Z,79.60
2017-10-03T15:28:12.856Z,81.10
2017-10-03T15:30:40.595Z,79.70
2017-10-03T15:33:08.223Z,78.50
2017-10-03T15:35:35.763Z,78.00
2017-10-03T15:38:03.425Z,79.10
2017-10-03T15:40:31.012Z,78.60
2017-10-03T15:42:58.574Z,78.10
2017-10-03T15:45:26.100Z,78.10
2017-10-03T15:47:54.471Z,81.10
2017-10-03T15:50:22.211Z,81.00
2017-10-03T15:52:49.847Z,81.80
2017-10-03T15:55:19.073Z,80.80
2017-10-03T15:57:46.835Z,80.80
2017-10-03T16:00:14.511Z,79.20
2017-10-03T16:02:42.185Z,78.60
2017-10-03T16:05:09.778Z,81.00
2017-10-03T16:07:37.355Z,81.90
2017-10-03T16:10:04.991Z,82.00
2017-10-03T16:12:32.608Z,82.00
2017-10-03T16:15:00.141Z,81.40
2017-10-03T16:17:27.791Z,82.40
2017-10-03T16:19:55.412Z,82.50
2017-10-03T16:22:23.191Z,82.30
2017-10-03T16:24:50.984Z,82.00
2017-10-03T16:27:18.645Z,81.20
2017-10-03T16:29:47.107Z,78.30
2017-10-03T16:32:15.597Z,77.80
2017-10-03T16:34:43.280Z,77.80
2017-10-03T16:37:10.929Z,80.40
2017-10-03T16:39:38.583Z,81.00
2017-10-03T16:42:06.208Z,81.90
2017-10-03T16:44:33.865Z,82.90
2017-10-03T16:47:01.471Z,83.40
2017-10-03T16:49:29.889Z,82.50
2017-10-03T16:51:57.552Z,82.40
2017-10-03T16:54:25.201Z,82.40
2017-10-03T16:56:53.621Z,83.70
2017-10-03T16:59:21.260Z,83.80
2017-10-03T17:01:49.086Z,84.40
2017-10-03T17:04:16.966Z,83.80
2017-10-03T17:06:44.630Z,84.00
2017-10-03T17:09:12.337Z,83.70
2017-10-03T17:11:40.717Z,84.50
2017-10-03T17:14:09.135Z,84.20
2017-10-03T17:16:36.730Z,84.10
2017-10-03T17:19:04.319Z,84.20
2017-10-03T17:21:32.179Z,84.30
2017-10-03T17:23:59.761Z,84.70
2017-10-03T17:26:28.493Z,84.70
2017-10-03T17:28:56.091Z,85.70
2017-10-03T17:31:23.767Z,85.60
2017-10-03T17:33:51.368Z,86.10
2017-10-03T17:36:19.877Z,86.10
2017-10-03T17:38:47.814Z,86.00
2017-10-03T17:41:15.515Z,86.10
2017-10-03T17:43:43.196Z,86.00
2017-10-03T17:46:11.505Z,86.20
2017-10-03T17:48:39.172Z,86.10
2017-10-03T17:51:06.819Z,86.80
2017-10-03T17:53:34.415Z,86.20
2017-10-03T17:56:02.091Z,86.20
2017-10-03T17:58:29.709Z,86.90
2017-10-03T18:00:57.802Z,87.50
2017-10-03T18:03:25.488Z,87.30
2017-10-03T18:05:54.097Z,87.00
2017-10-03T18:08:22.500Z,86.90
2017-10-03T18:10:50.098Z,87.80
2017-10-03T18:13:17.860Z,87.60
2017-10-03T18:15:45.536Z,88.40
2017-10-03T18:18:13.073Z,87.50
2017-10-03T18:20:40.663Z,87.80
2017-10-03T18:23:09.023Z,88.10
2017-10-03T18:25:37.447Z,88.40
2017-10-03T18:28:05.076Z,88.30
2017-10-03T18:30:33.911Z,87.90
2017-10-03T18:33:02.228Z,88.20
2017-10-03T18:35:30.712Z,88.30
2017-10-03T18:37:58.392Z,88.10
2017-10-03T18:40:26.042Z,88.00
2017-10-03T18:42:54.411Z,88.40
2017-10-03T18:45:22.022Z,88.40
2017-10-03T18:47:49.696Z,88.60
2017-10-03T18:50:18.086Z,88.70
2017-10-03T18:52:45.648Z,88.70
2017-10-03T18:55:13.179Z,88.90
2017-10-03T18:57:40.764Z,89.10
2017-10-03T19:00:08.292Z,89.20
2017-10-03T19:02:36.728Z,88.80
2017-10-03T19:05:04.357Z,88.80
2017-10-03T19:07:32.019Z,88.40
2017-10-03T19:10:00.438Z,88.50
2017-10-03T19:12:28.136Z,89.10
2017-10-03T19:14:55.795Z,88.60
2017-10-03T19:17:23.430Z,89.40
2017-10-03T19:19:51.049Z,89.90
2017-10-03T19:22:18.734Z,89.70
2017-10-03T19:24:46.385Z,89.70
2017-10-03T19:27:14.086Z,89.10
2017-10-03T19:29:41.650Z,89.10
2017-10-03T19:32:09.230Z,90.30
2017-10-03T19:34:36.823Z,90.70
2017-10-03T19:37:05.114Z,91.00
2017-10-03T19:39:32.684Z,90.60
2017-10-03T19:42:00.276Z,90.90
2017-10-03T19:44:27.840Z,90.80
2017-10-03T19:46:55.372Z,90.90
2017-10-03T19:49:23.787Z,91.30
2017-10-03T19:51:52.094Z,91.40
2017-10-03T19:54:19.682Z,91.30
2017-10-03T19:56:47.297Z,91.30
2017-10-03T19:59:15.728Z,91.10
2017-10-03T20:01:43.275Z,91.10
2017-10-03T20:04:10.942Z,91.10
2017-10-03T20:06:38.604Z,91.20
2017-10-03T20:09:06.232Z,91.40
2017-10-03T20:11:33.883Z,91.00
2017-10-03T20:14:02.258Z,91.50
2017-10-03T20:16:30.672Z,91.20
2017-10-03T20:18:58.295Z,91.20
2017-10-03T20:21:25.973Z,91.10
2017-10-03T20:23:53.603Z,91.00
2017-10-03T20:26:21.303Z,91.20
2017-10-03T20:28:48.882Z,91.20
2017-10-03T20:31:16.575Z,91.10
2017-10-03T20:33:44.168Z,91.40
2017-10-03T20:36:11.808Z,91.60
2017-10-03T20:38:40.182Z,91.80
2017-10-03T20:41:07.767Z,91.70
2017-10-03T20:43:35.392Z,91.60
2017-10-03T20:46:03.008Z,91.60
2017-10-03T20:48:31.373Z,91.60
2017-10-03T20:50:59.789Z,91.70
2017-10-03T20:53:27.396Z,91.70
2017-10-03T20:55:55.050Z,91.80
2017-10-03T20:58:22.704Z,92.10
2017-10-03T21:00:50.380Z,91.80
2017-10-03T21:03:18.075Z,91.70
2017-10-03T21:05:45.738Z,91.70
2017-10-03T21:08:13.326Z,91.40
2017-10-03T21:10:42.073Z,91.50
2017-10-03T21:13:09.709Z,91.70
2017-10-03T21:15:37.306Z,91.70
2017-10-03T21:18:04.827Z,91.50
2017-10-03T21:20:32.457Z,91.70
2017-10-03T21:23:00.020Z,91.80
2017-10-03T21:25:27.654Z,91.90
2017-10-03T21:27:55.249Z,91.80
2017-10-03T21:30:22.894Z,92.00
2017-10-03T21:32:50.511Z,92.10
2017-10-03T21:35:18.201Z,91.90
2017-10-03T21:37:45.864Z,92.10
2017-10-03T21:40:13.516Z,91.90
2017-10-03T21:42:52.885Z,92.10
2017-10-03T21:45:20.550Z,92.20
2017-10-03T21:47:48.168Z,92.00
2017-10-03T21:50:15.843Z,92.00
2017-10-03T21:52:44.252Z,92.20
2017-10-03T21:55:11.959Z,92.20
2017-10-03T21:57:40.319Z,92.20
2017-10-03T22:00:07.985Z,92.20
2017-10-03T22:02:36.337Z,92.20
2017-10-03T22:05:04.166Z,92.20
2017-10-03T22:07:31.733Z,92.00
2017-10-03T22:10:00.215Z,92.20
2017-10-03T22:12:27.809Z,92.10
2017-10-03T22:14:55.465Z,92.10
2017-10-03T22:17:23.065Z,92.10
2017-10-03T22:19:50.761Z,92.10
2017-10-03T22:22:18.378Z,92.20
2017-10-03T22:24:46.030Z,92.00
2017-10-03T22:27:13.956Z,92.20
2017-10-03T22:29:41.600Z,92.10
2017-10-03T22:32:09.274Z,91.90
2017-10-03T22:34:36.849Z,92.00
2017-10-03T22:37:04.457Z,92.10
2017-10-03T22:39:32.092Z,92.10
2017-10-03T22:41:59.797Z,92.30
2017-10-03T22:44:27.396Z,92.40
2017-10-03T22:46:55.093Z,92.40
2017-10-03T22:49:28.736Z,92.40
2017-10-03T22:52:01.862Z,92.30
2017-10-03T22:54:29.540Z,92.50
2017-10-03T22:56:57.185Z,92.50
2017-10-03T22:59:25.577Z,92.40
2017-10-03T23:01:53.192Z,92.40
2017-10-03T23:04:20.868Z,92.50
2017-10-03T23:06:48.495Z,92.50
2017-10-03T23:09:16.289Z,92.50
2017-10-03T23:11:43.955Z,92.60
2017-10-03T23:14:11.552Z,92.40
2017-10-03T23:16:39.199Z,92.30
2017-10-03T23:19:06.849Z,92.60
2017-10-03T23:21:34.518Z,92.40
2017-10-03T23:24:02.163Z,92.60
2017-10-03T23:26:29.786Z,92.70
2017-10-03T23:28:57.400Z,92.70
2017-10-03T23:31:25.013Z,92.50
2017-10-03T23:33:52.735Z,92.80
2017-10-03T23:36:20.398Z,92.50
2017-10-03T23:38:48.031Z,92.70
2017-10-03T23:41:15.925Z,92.60
2017-10-03T23:43:43.558Z,92.60
2017-10-03T23:46:11.247Z,92.70
2017-10-03T23:48:39.602Z,92.60
2017-10-03T23:51:07.330Z,92.50
2017-10-03T23:53:34.947Z,92.60
2017-10-03T23:56:02.582Z,92.30
2017-10-03T23:58:30.209Z,92.50
